createdAt,value
2023-09-22T00:02:35.027Z,99300.23
2023-09-22T00:06:37.417Z,99299.48
2023-09-22T00:10:48.270Z,99290.30
2023-09-22T00:14:51.097Z,99284.64
2023-09-22T00:18:53.269Z,99282.02
2023-09-22T00:22:55.427Z,99280.89
2023-09-22T00:26:58.157Z,99279.06
2023-09-22T00:31:00.344Z,99272.88
2023-09-22T00:35:12.548Z,99276.76
2023-09-22T00:39:14.752Z,99273.44
2023-09-22T00:43:18.044Z,99269.69
2023-09-22T00:47:21.669Z,99271.77
2023-09-22T00:51:45.289Z,99265.89
2023-09-22T00:55:50.361Z,99265.05
2023-09-22T00:59:53.308Z,99265.20
2023-09-22T01:03:56.148Z,99265.11
2023-09-22T01:07:58.383Z,99263.91
2023-09-22T01:12:00.531Z,99263.98
2023-09-22T01:16:03.195Z,99264.38
2023-09-22T01:20:26.478Z,99264.45
2023-09-22T01:24:28.506Z,99263.60
2023-09-22T01:28:33.168Z,99269.13
2023-09-22T01:32:55.034Z,99269.95
2023-09-22T01:36:59.096Z,99262.30
2023-09-22T01:41:02.478Z,99256.13
2023-09-22T01:45:07.796Z,99256.11
2023-09-22T01:49:11.195Z,99255.92
2023-09-22T01:53:13.268Z,99257.65
2023-09-22T01:57:35.279Z,99253.16
2023-09-22T02:01:37.306Z,99250.91
2023-09-22T02:05:47.674Z,99251.96
2023-09-22T02:09:49.720Z,99252.71
2023-09-22T02:13:52.740Z,99251.36
2023-09-22T02:17:59.759Z,99253.89
2023-09-22T02:22:04.531Z,99252.05
2023-09-22T02:26:26.900Z,99248.64
2023-09-22T02:30:28.967Z,99251.84
2023-09-22T02:34:31.081Z,99244.78
2023-09-22T02:38:33.145Z,99239.02
2023-09-22T02:42:35.783Z,99246.73
2023-09-22T02:46:48.279Z,99241.58
2023-09-22T02:50:50.520Z,99239.90
2023-09-22T02:54:54.932Z,99234.25
2023-09-22T02:59:17.192Z,99232.31
2023-09-22T03:03:19.261Z,99233.70
2023-09-22T03:07:23.519Z,99227.73
2023-09-22T03:11:25.728Z,99232.45
2023-09-22T03:15:28.201Z,99229.58
2023-09-22T03:19:34.170Z,99230.28
2023-09-22T03:23:36.416Z,99221.54
2023-09-22T03:27:39.138Z,99217.21
2023-09-22T03:32:01.472Z,99214.45
2023-09-22T03:36:06.376Z,99216.92
2023-09-22T03:40:23.651Z,99210.95
2023-09-22T03:44:45.510Z,99211.48
2023-09-22T03:48:49.278Z,99208.88
2023-09-22T03:53:11.268Z,99206.48
2023-09-22T03:57:14.323Z,99209.52
2023-09-22T04:01:16.497Z,99206.39
2023-09-22T04:05:19.164Z,99204.40
2023-09-22T04:09:21.829Z,99197.14
2023-09-22T04:13:27.888Z,99199.27
2023-09-22T04:17:50.065Z,99205.21
2023-09-22T04:21:53.328Z,99204.90
2023-09-22T04:26:00.280Z,99204.44
2023-09-22T04:30:04.478Z,99199.23
2023-09-22T04:34:06.700Z,99201.40
2023-09-22T04:38:12.510Z,99199.23
2023-09-22T04:42:14.807Z,99194.90
2023-09-22T04:46:17.301Z,99198.17
2023-09-22T04:50:20.077Z,99203.87
2023-09-22T04:54:22.198Z,99206.45
2023-09-22T04:58:25.089Z,99201.48
2023-09-22T05:02:27.371Z,99202.77
2023-09-22T05:06:29.451Z,99206.86
2023-09-22T05:10:38.716Z,99207.08
2023-09-22T05:14:40.902Z,99210.70
2023-09-22T05:18:43.512Z,99214.61
2023-09-22T05:22:46.196Z,99217.80
2023-09-22T05:26:48.319Z,99213.41
2023-09-22T05:30:52.980Z,99212.27
2023-09-22T05:34:55.485Z,99209.89
2023-09-22T05:38:57.735Z,99211.42
2023-09-22T05:42:59.859Z,99209.55
2023-09-22T05:47:01.958Z,99211.44
2023-09-22T05:51:21.356Z,99211.58
2023-09-22T05:55:23.457Z,99207.94
2023-09-22T05:59:29.165Z,99210.73
2023-09-22T06:03:31.831Z,99209.98
2023-09-22T06:07:36.433Z,99208.92
2023-09-22T06:11:41.752Z,99206.60
2023-09-22T06:15:43.797Z,99206.98
2023-09-22T06:19:46.098Z,99210.77
2023-09-22T06:23:50.406Z,99210.45
2023-09-22T06:27:56.370Z,99213.30
2023-09-22T06:32:05.224Z,99209.65
2023-09-22T06:36:07.340Z,99210.20
2023-09-22T06:40:13.721Z,99211.63
2023-09-22T06:44:25.040Z,99219.98
2023-09-22T06:48:27.505Z,99221.89
2023-09-22T06:52:30.317Z,99222.59
2023-09-22T06:56:49.813Z,99215.65
2023-09-22T07:01:05.987Z,99214.40
2023-09-22T07:05:09.269Z,99208.81
2023-09-22T07:09:12.429Z,99211.91
2023-09-22T07:13:14.448Z,99214.58
2023-09-22T07:17:16.472Z,99212.34
2023-09-22T07:21:18.468Z,99205.84
2023-09-22T07:25:22.885Z,99201.60
2023-09-22T07:29:24.910Z,99193.70
2023-09-22T07:33:32.726Z,99199.24
2023-09-22T07:37:37.307Z,99205.48
2023-09-22T07:41:40.185Z,99203.41
2023-09-22T07:45:42.433Z,99205.45
2023-09-22T07:49:44.988Z,99209.19
2023-09-22T07:53:47.916Z,99211.80
2023-09-22T07:57:50.777Z,99213.41
2023-09-22T08:01:52.954Z,99209.75
2023-09-22T08:05:55.103Z,99217.77
2023-09-22T08:09:57.257Z,99216.39
2023-09-22T08:14:00.558Z,99212.56
2023-09-22T08:18:06.600Z,99208.02
2023-09-22T08:22:15.957Z,99211.21
2023-09-22T08:26:19.610Z,99214.71
2023-09-22T08:30:21.988Z,99216.29
2023-09-22T08:34:24.202Z,99207.92
2023-09-22T08:38:26.473Z,99209.36
2023-09-22T08:42:28.513Z,99208.89
2023-09-22T08:46:31.304Z,99205.80
2023-09-22T08:50:33.631Z,99208.01
2023-09-22T08:54:38.034Z,99208.75
2023-09-22T08:58:40.438Z,99211.85
2023-09-22T09:02:43.158Z,99212.95
2023-09-22T09:06:47.901Z,99208.19
2023-09-22T09:11:11.516Z,99206.38
2023-09-22T09:15:13.586Z,99203.79
2023-09-22T09:19:16.526Z,99198.43
2023-09-22T09:23:21.465Z,99205.30
2023-09-22T09:27:23.666Z,99205.41
2023-09-22T09:31:48.351Z,99200.44
2023-09-22T09:35:52.234Z,99191.84
2023-09-22T09:39:56.651Z,99185.67
2023-09-22T09:44:02.383Z,99180.58
2023-09-22T09:48:05.751Z,99171.32
2023-09-22T09:52:10.151Z,99168.89
2023-09-22T09:56:16.998Z,99171.23
2023-09-22T10:00:22.394Z,99166.80
2023-09-22T10:04:25.049Z,99165.74
2023-09-22T10:08:27.756Z,99162.35
2023-09-22T10:12:31.219Z,99162.28
2023-09-22T10:16:33.318Z,99154.06
2023-09-22T10:20:46.393Z,99149.37
2023-09-22T10:25:11.036Z,99156.04
2023-09-22T10:29:53.240Z,99154.67
2023-09-22T10:33:56.541Z,99158.83
2023-09-22T10:38:19.862Z,99166.38
2023-09-22T10:42:25.037Z,99170.40
2023-09-22T10:46:27.248Z,99170.53
2023-09-22T10:50:34.183Z,99162.68
2023-09-22T10:55:02.688Z,99163.81
2023-09-22T10:59:05.273Z,99163.27
2023-09-22T11:03:10.393Z,99169.25
2023-09-22T11:07:31.192Z,99170.13
2023-09-22T11:11:55.219Z,99172.92
2023-09-22T11:16:02.705Z,99170.27
2023-09-22T11:20:29.783Z,99173.56
2023-09-22T11:24:31.998Z,99175.85
2023-09-22T11:28:35.012Z,99175.34
2023-09-22T11:32:37.077Z,99171.08
2023-09-22T11:37:05.893Z,99160.06
2023-09-22T11:41:14.557Z,99163.02
2023-09-22T11:45:21.651Z,99158.60
2023-09-22T11:49:35.088Z,99152.17
2023-09-22T11:53:37.040Z,99152.51
2023-09-22T11:57:39.712Z,99156.93
2023-09-22T12:01:42.929Z,99146.69
2023-09-22T12:06:03.032Z,99147.45
2023-09-22T12:10:05.920Z,99155.98
2023-09-22T12:14:27.937Z,99164.23
2023-09-22T12:18:30.178Z,99160.12
2023-09-22T12:22:33.402Z,99160.91
2023-09-22T12:26:35.405Z,99159.30
2023-09-22T12:30:57.422Z,99159.33
2023-09-22T12:35:08.742Z,99154.54
2023-09-22T12:39:30.635Z,99154.30
2023-09-22T12:43:37.747Z,99157.88
2023-09-22T12:47:40.912Z,99156.04
2023-09-22T12:51:43.394Z,99161.66
2023-09-22T12:55:45.502Z,99159.83
2023-09-22T12:59:47.444Z,99153.70
2023-09-22T13:03:50.282Z,99153.46
2023-09-22T13:07:53.074Z,99153.41
2023-09-22T13:11:55.147Z,99152.68
2023-09-22T13:15:57.235Z,99156.95
2023-09-22T13:19:59.270Z,99158.02
2023-09-22T13:24:30.470Z,99148.64
2023-09-22T13:28:32.907Z,99152.02
2023-09-22T13:32:35.639Z,99148.02
2023-09-22T13:36:37.908Z,99146.08
2023-09-22T13:40:42.888Z,99147.39
2023-09-22T13:44:44.931Z,99137.79
2023-09-22T13:48:47.065Z,99126.23
2023-09-22T13:52:48.995Z,99130.65
2023-09-22T13:56:51.190Z,99126.66
2023-09-22T14:00:53.276Z,99131.67
2023-09-22T14:04:55.442Z,99136.05
2023-09-22T14:09:01.750Z,99142.37
2023-09-22T14:13:04.779Z,99153.76
2023-09-22T14:17:06.858Z,99157.16
2023-09-22T14:21:08.954Z,99162.92
2023-09-22T14:25:12.216Z,99165.01
2023-09-22T14:29:18.250Z,99165.41
2023-09-22T14:33:20.261Z,99170.98
2023-09-22T14:37:22.922Z,99168.02
2023-09-22T14:41:25.446Z,99162.45
2023-09-22T14:45:28.248Z,99160.11
2023-09-22T14:49:30.294Z,99156.40
2023-09-22T14:53:32.522Z,99156.17
2023-09-22T14:57:34.453Z,99158.73
2023-09-22T15:01:38.120Z,99150.27
2023-09-22T15:05:40.709Z,99155.46
2023-09-22T15:09:43.273Z,99157.66
2023-09-22T15:13:52.288Z,99160.98
2023-09-22T15:17:55.835Z,99161.30
2023-09-22T15:21:58.049Z,99163.18
2023-09-22T15:26:02.606Z,99160.27
2023-09-22T15:30:05.198Z,99164.02
2023-09-22T15:34:07.316Z,99169.96
2023-09-22T15:38:13.513Z,99169.08
2023-09-22T15:42:15.486Z,99175.97
2023-09-22T15:46:17.453Z,99174.42
2023-09-22T15:50:19.390Z,99178.79
2023-09-22T15:54:21.415Z,99180.71
2023-09-22T15:58:23.463Z,99180.02
2023-09-22T16:02:33.961Z,99185.91
2023-09-22T16:06:36.184Z,99187.36
2023-09-22T16:10:43.989Z,99188.97
2023-09-22T16:14:46.001Z,99194.61
2023-09-22T16:18:48.640Z,99195.87
2023-09-22T16:22:50.613Z,99191.29
2023-09-22T16:26:52.626Z,99189.96
2023-09-22T16:30:54.819Z,99194.13
2023-09-22T16:34:58.347Z,99197.63
2023-09-22T16:39:01.579Z,99203.70
2023-09-22T16:43:04.119Z,99205.41
2023-09-22T16:47:06.401Z,99209.11
2023-09-22T16:51:10.034Z,99204.64
2023-09-22T16:55:12.071Z,99212.09
2023-09-22T16:59:16.677Z,99212.87
2023-09-22T17:03:20.072Z,99213.48
2023-09-22T17:07:22.403Z,99208.77
2023-09-22T17:11:24.328Z,99206.73
2023-09-22T17:15:27.624Z,99205.73
2023-09-22T17:19:30.176Z,99207.08
2023-09-22T17:23:32.157Z,99213.31
2023-09-22T17:27:34.200Z,99217.90
2023-09-22T17:31:36.231Z,99221.15
2023-09-22T17:35:39.374Z,99227.48
2023-09-22T17:39:41.496Z,99231.33
2023-09-22T17:43:43.655Z,99229.69
2023-09-22T17:47:46.427Z,99231.42
2023-09-22T17:51:49.652Z,99234.77
2023-09-22T17:55:51.838Z,99238.13
2023-09-22T17:59:55.164Z,99241.64
2023-09-22T18:03:57.350Z,99238.77
2023-09-22T18:07:59.669Z,99235.69
2023-09-22T18:12:03.046Z,99233.93
2023-09-22T18:16:06.291Z,99234.09
2023-09-22T18:20:09.938Z,99234.30
2023-09-22T18:24:12.275Z,99239.94
2023-09-22T18:28:14.594Z,99249.02
2023-09-22T18:32:17.478Z,99254.75
2023-09-22T18:36:20.220Z,99255.42
2023-09-22T18:40:23.077Z,99255.85
2023-09-22T18:44:25.819Z,99255.54
2023-09-22T18:48:30.291Z,99258.86
2023-09-22T18:52:32.577Z,99259.42
2023-09-22T18:56:34.850Z,99264.35
2023-09-22T19:00:40.057Z,99259.20
2023-09-22T19:04:42.601Z,99264.80
2023-09-22T19:08:45.144Z,99267.98
2023-09-22T19:12:47.758Z,99269.09
2023-09-22T19:16:50.203Z,99263.95
2023-09-22T19:20:52.511Z,99265.64
2023-09-22T19:24:55.429Z,99271.63
2023-09-22T19:28:59.983Z,99268.33
2023-09-22T19:33:02.309Z,99266.98
2023-09-22T19:37:04.821Z,99261.54
2023-09-22T19:41:13.391Z,99260.34
2023-09-22T19:45:15.768Z,99255.11
2023-09-22T19:49:18.303Z,99254.39
2023-09-22T19:53:20.565Z,99253.95
2023-09-22T19:57:22.818Z,99256.49
2023-09-22T20:01:26.463Z,99254.11
2023-09-22T20:05:28.984Z,99260.22
2023-09-22T20:09:31.228Z,99267.94
2023-09-22T20:13:33.790Z,99265.07
2023-09-22T20:17:36.251Z,99266.84
2023-09-22T20:21:40.050Z,99266.71
2023-09-22T20:25:42.338Z,99275.79
2023-09-22T20:29:49.444Z,99277.03
2023-09-22T20:33:52.026Z,99275.18
2023-09-22T20:37:54.333Z,99275.80
2023-09-22T20:41:58.015Z,99277.60
2023-09-22T20:46:01.046Z,99276.66
2023-09-22T20:50:03.396Z,99276.79
2023-09-22T20:54:08.173Z,99275.95
2023-09-22T20:58:10.245Z,99275.09
2023-09-22T21:02:12.244Z,99278.47
2023-09-22T21:06:14.306Z,99279.23
2023-09-22T21:10:16.649Z,99278.70
2023-09-22T21:14:18.597Z,99282.08
2023-09-22T21:18:20.805Z,99278.70
2023-09-22T21:22:22.697Z,99271.27
2023-09-22T21:26:25.030Z,99269.31
2023-09-22T21:30:27.048Z,99271.37
2023-09-22T21:38:31.006Z,99263.46
2023-09-22T21:42:33.731Z,99260.73
2023-09-22T21:46:35.916Z,99263.80
2023-09-22T21:50:42.381Z,99262.75
2023-09-22T21:54:47.520Z,99263.95
2023-09-22T21:58:54.260Z,99263.92
2023-09-22T22:02:56.668Z,99262.11
2023-09-22T22:07:00.004Z,99261.74
2023-09-22T22:11:05.886Z,99264.78
2023-09-22T22:15:08.726Z,99259.88
2023-09-22T22:19:10.685Z,99261.27
2023-09-22T22:23:18.001Z,99261.99
2023-09-22T22:27:23.347Z,99264.60
2023-09-22T22:31:26.046Z,99269.48
2023-09-22T22:35:29.905Z,99270.89
2023-09-22T22:39:31.972Z,99271.11
2023-09-22T22:43:34.749Z,99269.34
2023-09-22T22:47:37.515Z,99265.77
2023-09-22T22:51:41.899Z,99266.30
2023-09-22T22:55:44.328Z,99271.36
2023-09-22T22:59:48.440Z,99277.55
2023-09-22T23:03:50.542Z,99280.61
2023-09-22T23:07:53.450Z,99284.05
2023-09-22T23:11:55.527Z,99288.88
2023-09-22T23:16:00.236Z,99300.15
2023-09-22T23:20:07.851Z,99298.02
2023-09-22T23:24:14.069Z,99292.55
2023-09-22T23:28:15.997Z,99286.23
2023-09-22T23:32:22.380Z,99286.56
2023-09-22T23:36:24.350Z,99285.81
2023-09-22T23:40:29.290Z,99285.70
2023-09-22T23:44:31.243Z,99288.10
2023-09-22T23:48:33.836Z,99285.39
2023-09-22T23:52:36.123Z,99286.27
2023-09-22T23:56:40.862Z,99288.20
